Time;durP1;ratioP1;P1;durP2;ratioP2;P2;SDS_P1;SDS_P2;PMS_P1;PMS_P2;Temp;Humidity;BMP_temperature;BMP_pressure;BME280_temperature;BME280_humidity;BME280_pressure;Samples;Min_cycle;Max_cycle;Signal;HPM_P1;HPM_P2
2023/05/09 00:00:38;;;;;;;22.53;20.20;;;14.30;1.00;;;;;;5099052;28;20467;-59
2023/05/09 00:03:07;;;;;;;23.90;21.40;;;14.40;99.90;;;;;;5098828;28;20460;-57
2023/05/09 00:05:35;;;;;;;24.20;20.13;;;14.30;98.40;;;;;;5099354;28;20974;-59
2023/05/09 00:08:02;;;;;;;21.93;19.73;;;14.30;99.90;;;;;;5099060;28;20460;-59
2023/05/09 00:10:29;;;;;;;23.00;20.60;;;14.30;1.00;;;;;;5098264;28;20531;-57
2023/05/09 00:12:58;;;;;;;23.03;20.53;;;14.30;1.00;;;;;;5098761;28;20460;-57
2023/05/09 00:15:25;;;;;;;25.33;21.77;;;14.30;1.00;;;;;;5098913;28;20470;-55
2023/05/09 00:17:53;;;;;;;23.27;20.83;;;14.20;1.00;;;;;;5099203;28;20555;-57
2023/05/09 00:20:22;;;;;;;23.77;21.30;;;14.20;1.00;;;;;;5098942;28;20510;-59
2023/05/09 00:22:49;;;;;;;24.17;21.77;;;14.20;21.00;;;;;;5098623;28;20487;-59
2023/05/09 00:25:16;;;;;;;25.10;22.07;;;14.10;97.80;;;;;;5098520;28;20502;-59
2023/05/09 00:27:43;;;;;;;23.73;21.57;;;14.10;99.90;;;;;;5098776;28;20492;-59
2023/05/09 00:30:11;;;;;;;23.87;21.47;;;14.10;99.90;;;;;;5097968;28;20553;-58
2023/05/09 00:32:39;;;;;;;22.87;20.67;;;14.10;99.90;;;;;;5098321;28;20537;-59
2023/05/09 00:35:07;;;;;;;23.63;20.77;;;14.10;99.90;;;;;;5098663;28;20460;-59
2023/05/09 00:37:35;;;;;;;24.27;21.87;;;14.00;99.90;;;;;;5098875;28;20435;-59
2023/05/09 00:40:05;;;;;;;24.43;22.03;;;14.00;99.90;;;;;;5098710;28;20461;-59
2023/05/09 00:42:32;;;;;;;21.43;19.23;;;14.00;99.90;;;;;;5098217;28;20464;-58
2023/05/09 00:44:59;;;;;;;24.00;21.40;;;14.00;99.90;;;;;;5098357;28;20529;-59
2023/05/09 00:47:27;;;;;;;23.10;20.80;;;14.00;99.90;;;;;;5097835;28;20546;-58
2023/05/09 00:49:56;;;;;;;23.23;20.83;;;14.00;99.90;;;;;;5098147;28;20558;-59
2023/05/09 00:52:25;;;;;;;23.13;20.73;;;14.00;99.90;;;;;;5097653;28;20456;-58
2023/05/09 00:54:55;;;;;;;21.83;19.63;;;13.90;99.90;;;;;;5098037;28;20465;-57
2023/05/09 00:57:22;;;;;;;21.30;19.20;;;14.00;99.90;;;;;;5098198;28;20467;-59
2023/05/09 00:59:50;;;;;;;23.30;21.10;;;13.90;99.90;;;;;;5097690;28;20555;-58
2023/05/09 01:02:18;;;;;;;24.73;21.90;;;14.00;99.90;;;;;;5098183;28;20557;-57
2023/05/09 01:04:45;;;;;;;22.77;20.37;;;14.00;99.90;;;;;;5097779;28;20463;-59
2023/05/09 01:07:22;;;;;;;24.43;21.93;;;14.00;99.90;;;;;;5098136;28;20780;-56
2023/05/09 01:10:01;;;;;;;23.67;21.17;;;14.00;99.90;;;;;;5098026;28;20470;-57
2023/05/09 01:12:37;;;;;;;23.93;21.57;;;13.90;99.90;;;;;;5097656;28;20470;-59
2023/05/09 01:15:10;;;;;;;23.97;21.57;;;13.90;99.90;;;;;;5097408;28;20550;-56
2023/05/09 01:17:44;;;;;;;25.60;22.93;;;13.90;99.90;;;;;;5097817;28;20792;-59
2023/05/09 01:20:21;;;;;;;23.80;21.33;;;13.90;99.90;;;;;;5098010;28;20824;-57
2023/05/09 01:23:08;;;;;;;25.07;22.37;;;13.90;99.90;;;;;;5097314;28;20445;-59
2023/05/09 01:25:54;;;;;;;27.10;24.30;;;13.90;99.90;;;;;;5097753;28;20567;-59
2023/05/09 01:28:48;;;;;;;27.77;24.97;;;13.90;99.90;;;;;;5098062;28;20499;-59
2023/05/09 01:31:17;;;;;;;25.37;22.73;;;13.80;99.90;;;;;;5097187;28;20510;-59
2023/05/09 01:33:47;;;;;;;24.33;21.73;;;13.80;99.90;;;;;;5097599;28;20547;-59
2023/05/09 01:36:17;;;;;;;26.73;22.50;;;13.80;99.90;;;;;;5097726;28;20467;-59
2023/05/09 01:38:47;;;;;;;26.37;22.67;;;13.80;99.90;;;;;;5097402;28;20761;-59
2023/05/09 01:41:16;;;;;;;27.03;24.30;;;13.80;99.90;;;;;;5097549;28;20523;-57
2023/05/09 01:43:47;;;;;;;25.87;22.10;;;13.80;99.90;;;;;;5097632;28;20460;-59
2023/05/09 01:46:18;;;;;;;26.17;23.40;;;13.80;99.90;;;;;;5097041;28;20809;-59
2023/05/09 01:48:46;;;;;;;26.10;23.50;;;13.80;99.90;;;;;;5097293;28;20807;-59
2023/05/09 01:51:15;;;;;;;25.10;21.83;;;13.70;99.90;;;;;;5097134;28;20866;-57
2023/05/09 01:53:43;;;;;;;26.43;22.37;;;13.70;99.90;;;;;;5097405;28;20503;-59
2023/05/09 01:56:12;;;;;;;26.47;23.67;;;13.80;99.90;;;;;;5097369;28;20863;-57
2023/05/09 01:58:41;;;;;;;29.93;25.50;;;13.80;99.90;;;;;;5097048;28;20435;-59
2023/05/09 02:01:09;;;;;;;27.57;24.73;;;13.80;99.90;;;;;;5100850;28;20439;-59
2023/05/09 02:03:39;;;;;;;27.57;24.67;;;13.80;99.90;;;;;;5101345;28;20464;-59
2023/05/09 02:06:07;;;;;;;26.80;23.90;;;13.80;99.90;;;;;;5101578;28;20558;-59
2023/05/09 02:08:35;;;;;;;28.00;24.50;;;13.80;99.90;;;;;;5101140;28;20960;-58
2023/05/09 02:11:02;;;;;;;24.37;21.77;;;13.80;99.90;;;;;;5100915;28;20572;-58
2023/05/09 02:13:30;;;;;;;28.47;25.47;;;13.80;99.90;;;;;;5101270;28;20515;-57
2023/05/09 02:15:57;;;;;;;26.77;23.73;;;13.80;99.90;;;;;;5101199;28;20500;-56
2023/05/09 02:18:24;;;;;;;30.10;25.63;;;13.80;99.90;;;;;;5100702;28;20468;-58
2023/05/09 02:20:53;;;;;;;26.80;23.90;;;13.80;99.90;;;;;;5100785;28;20456;-59
2023/05/09 02:23:21;;;;;;;30.07;24.17;;;13.80;99.90;;;;;;5100907;28;20464;-59
2023/05/09 02:25:48;;;;;;;27.70;24.30;;;13.80;99.90;;;;;;5101074;28;20459;-59
2023/05/09 02:28:18;;;;;;;26.70;24.10;;;13.80;99.90;;;;;;5101329;28;20434;-59
2023/05/09 02:30:47;;;;;;;26.73;23.47;;;13.90;99.90;;;;;;5100371;28;20484;-59
2023/05/09 02:33:14;;;;;;;29.10;24.33;;;13.90;99.90;;;;;;5101023;28;20514;-59
2023/05/09 02:35:44;;;;;;;27.57;24.60;;;13.80;99.90;;;;;;5100654;28;20467;-59
2023/05/09 02:38:13;;;;;;;27.00;23.97;;;13.80;99.90;;;;;;5100919;28;20551;-59
2023/05/09 02:40:43;;;;;;;27.03;24.13;;;13.80;99.90;;;;;;5100745;28;20551;-59
2023/05/09 02:43:10;;;;;;;27.77;24.70;;;13.80;99.90;;;;;;5101029;28;20803;-59
2023/05/09 02:45:37;;;;;;;27.53;24.70;;;13.90;99.90;;;;;;5100674;28;20551;-58
2023/05/09 02:48:06;;;;;;;28.57;25.67;;;13.90;99.90;;;;;;5100115;28;20821;-59
2023/05/09 02:50:33;;;;;;;31.13;25.53;;;14.00;99.90;;;;;;5100658;28;20467;-57
2023/05/09 02:53:00;;;;;;;29.10;25.20;;;14.00;99.90;;;;;;5100651;28;20435;-56
2023/05/09 02:55:29;;;;;;;28.10;24.87;;;14.00;99.90;;;;;;5100411;28;20472;-59
2023/05/09 02:57:56;;;;;;;28.67;24.60;;;14.00;99.90;;;;;;5100474;28;20471;-59
2023/05/09 03:00:24;;;;;;;28.70;25.40;;;14.10;99.90;;;;;;5100073;28;20460;-58
2023/05/09 03:02:51;;;;;;;29.60;26.40;;;14.10;99.90;;;;;;5100058;28;20503;-59
2023/05/09 03:05:19;;;;;;;28.67;24.17;;;14.10;99.90;;;;;;5100145;28;20441;-59
2023/05/09 03:07:46;;;;;;;31.40;24.33;;;14.10;99.90;;;;;;5100479;28;20563;-56
2023/05/09 03:10:13;;;;;;;27.53;24.63;;;14.10;99.90;;;;;;5099953;28;20563;-57
2023/05/09 03:12:42;;;;;;;29.40;26.50;;;14.20;99.90;;;;;;5099752;28;20574;-57
2023/05/09 03:15:10;;;;;;;27.50;24.60;;;14.20;99.90;;;;;;5100029;28;20822;-59
2023/05/09 03:17:37;;;;;;;27.87;25.03;;;14.10;99.90;;;;;;5099567;28;20492;-59
2023/05/09 03:20:06;;;;;;;27.20;24.27;;;14.20;99.90;;;;;;5100234;28;20466;-59
2023/05/09 03:22:34;;;;;;;28.20;25.40;;;14.20;99.90;;;;;;5099564;28;20464;-59
2023/05/09 03:25:02;;;;;;;28.63;25.57;;;14.20;99.90;;;;;;5099818;28;20464;-59
2023/05/09 03:27:29;;;;;;;32.30;27.20;;;14.30;99.90;;;;;;5100065;28;20460;-59
2023/05/09 03:29:58;;;;;;;30.53;26.80;;;14.40;99.90;;;;;;5100274;28;20469;-59
2023/05/09 03:32:26;;;;;;;27.43;24.53;;;14.40;99.90;;;;;;5099039;28;20466;-59
2023/05/09 03:34:54;;;;;;;29.97;26.93;;;14.40;99.90;;;;;;5099475;28;20501;-54
2023/05/09 03:37:21;;;;;;;30.27;26.80;;;14.40;99.90;;;;;;5099691;28;20879;-55
2023/05/09 03:39:49;;;;;;;28.53;25.50;;;14.40;99.90;;;;;;5100104;28;20463;-59
2023/05/09 03:42:16;;;;;;;27.60;24.73;;;14.40;99.90;;;;;;5099759;28;20740;-59
2023/05/09 03:44:43;;;;;;;28.77;25.97;;;14.40;99.90;;;;;;5097649;28;20435;-57
2023/05/09 03:47:11;;;;;;;29.00;25.90;;;14.40;99.90;;;;;;5079407;28;20435;-59
2023/05/09 03:49:39;;;;;;;27.77;24.63;;;14.40;99.90;;;;;;5079058;28;20461;-58
2023/05/09 03:52:06;;;;;;;29.10;24.77;;;14.40;99.90;;;;;;5078815;28;20503;-59
2023/05/09 03:54:33;;;;;;;28.13;25.10;;;14.50;99.90;;;;;;5076816;28;20949;-56
2023/05/09 03:57:00;;;;;;;28.53;25.40;;;14.50;99.90;;;;;;5078566;28;20443;-57
2023/05/09 03:59:28;;;;;;;27.47;24.33;;;14.50;99.90;;;;;;5079185;28;20824;-58
2023/05/09 04:01:55;;;;;;;29.77;26.57;;;14.50;99.90;;;;;;5079017;28;20515;-59
2023/05/09 04:04:23;;;;;;;29.10;26.13;;;14.50;99.90;;;;;;5078433;28;20962;-58
2023/05/09 04:06:51;;;;;;;28.63;25.63;;;14.50;99.90;;;;;;5078700;28;20461;-59
2023/05/09 04:09:19;;;;;;;29.67;26.57;;;14.50;99.90;;;;;;5078562;28;20552;-59
2023/05/09 04:11:47;;;;;;;29.43;26.37;;;14.50;99.90;;;;;;5078849;28;20547;-56
2023/05/09 04:14:14;;;;;;;30.47;27.27;;;14.60;99.90;;;;;;5078955;28;20496;-58
2023/05/09 04:16:42;;;;;;;29.13;25.90;;;14.50;99.90;;;;;;5078764;28;20913;-59
2023/05/09 04:19:09;;;;;;;28.50;24.20;;;14.60;99.90;;;;;;5078294;28;20464;-59
2023/05/09 04:21:38;;;;;;;27.37;24.47;;;14.60;99.90;;;;;;5078219;28;20488;-58
2023/05/09 04:24:06;;;;;;;28.73;25.70;;;14.50;99.90;;;;;;5078357;28;20811;-59
2023/05/09 04:26:36;;;;;;;29.13;26.10;;;14.60;99.90;;;;;;5077633;28;20488;-59
2023/05/09 04:29:04;;;;;;;29.90;26.73;;;14.60;99.90;;;;;;5078047;28;20468;-57
2023/05/09 04:31:31;;;;;;;30.43;27.17;;;14.60;99.90;;;;;;5077709;28;20807;-58
2023/05/09 04:33:58;;;;;;;31.23;26.30;;;14.60;99.90;;;;;;5078351;28;20511;-58
2023/05/09 04:36:26;;;;;;;28.97;25.90;;;14.60;99.90;;;;;;5077985;28;20515;-58
2023/05/09 04:38:55;;;;;;;32.13;27.87;;;14.60;99.90;;;;;;5078184;28;20465;-59
2023/05/09 04:41:22;;;;;;;28.00;25.00;;;14.60;99.90;;;;;;5078445;28;20463;-59
2023/05/09 04:43:50;;;;;;;30.90;26.33;;;14.70;99.90;;;;;;5078089;28;20464;-58
2023/05/09 04:46:17;;;;;;;29.57;26.33;;;14.70;99.90;;;;;;5078113;28;20465;-58
2023/05/09 04:48:45;;;;;;;31.93;28.10;;;14.70;99.90;;;;;;5077651;28;20461;-56
2023/05/09 04:51:12;;;;;;;27.57;24.60;;;14.70;99.90;;;;;;5077826;28;20489;-58
2023/05/09 04:53:39;;;;;;;29.47;26.37;;;14.70;99.90;;;;;;5076059;28;20905;-59
2023/05/09 04:56:08;;;;;;;31.13;27.67;;;14.80;99.90;;;;;;5076745;28;20549;-58
2023/05/09 04:58:37;;;;;;;28.93;26.03;;;14.80;99.90;;;;;;5076331;28;20925;-59
2023/05/09 05:01:04;;;;;;;29.50;26.50;;;14.80;99.90;;;;;;5076681;28;20457;-59
2023/05/09 05:03:32;;;;;;;29.93;26.73;;;14.80;99.90;;;;;;5077170;28;20475;-58
2023/05/09 05:05:59;;;;;;;28.17;25.20;;;14.80;99.90;;;;;;5074934;28;20548;-58
2023/05/09 05:08:26;;;;;;;30.60;26.03;;;14.80;99.90;;;;;;5075630;28;20539;-58
2023/05/09 05:10:54;;;;;;;29.53;25.80;;;14.80;99.90;;;;;;5076711;28;20457;-61
2023/05/09 05:13:22;;;;;;;27.53;24.47;;;14.80;99.90;;;;;;5076894;28;20488;-61
2023/05/09 05:15:50;;;;;;;28.33;25.33;;;14.80;99.90;;;;;;5077484;28;20878;-61
2023/05/09 05:18:17;;;;;;;28.23;25.30;;;14.80;99.90;;;;;;5077077;28;20465;-61
2023/05/09 05:20:45;;;;;;;29.63;26.43;;;14.80;99.90;;;;;;5071620;28;20910;-61
2023/05/09 05:23:13;;;;;;;26.50;23.70;;;14.80;99.90;;;;;;5076736;28;20532;-61
2023/05/09 05:25:40;;;;;;;29.83;26.97;;;14.80;99.90;;;;;;5077345;28;20467;-61
2023/05/09 05:28:07;;;;;;;29.20;26.17;;;14.80;99.90;;;;;;5077397;28;20551;-61
2023/05/09 05:30:36;;;;;;;28.17;25.27;;;14.90;99.90;;;;;;5076587;28;20997;-61
2023/05/09 05:33:03;;;;;;;26.10;23.50;;;14.90;99.90;;;;;;5074575;28;20495;-61
2023/05/09 05:35:31;;;;;;;30.40;27.30;;;14.90;99.90;;;;;;5074610;28;20457;-61
2023/05/09 05:38:01;;;;;;;27.57;24.40;;;15.00;99.90;;;;;;5072119;28;20485;-61
2023/05/09 05:40:28;;;;;;;27.77;24.90;;;15.00;99.90;;;;;;5073419;28;20582;-61
2023/05/09 05:42:55;;;;;;;25.73;22.90;;;15.10;99.90;;;;;;5075374;28;20449;-61
2023/05/09 05:45:22;;;;;;;27.60;24.60;;;15.20;99.90;;;;;;5075474;28;20458;-61
2023/05/09 05:47:51;;;;;;;25.63;23.03;;;15.30;70.20;;;;;;5075042;28;20504;-61
2023/05/09 05:50:19;;;;;;;27.30;22.93;;;15.40;3.00;;;;;;5076720;28;20556;-61
2023/05/09 05:52:46;;;;;;;27.93;25.13;;;15.40;1.00;;;;;;5076151;28;20485;-61
2023/05/09 05:55:13;;;;;;;28.27;25.00;;;15.50;99.90;;;;;;5076823;28;20944;-61
2023/05/09 05:57:40;;;;;;;25.17;22.57;;;15.60;99.90;;;;;;5071910;28;20887;-61
2023/05/09 06:00:09;;;;;;;24.93;22.23;;;15.60;1.00;;;;;;5071743;28;20897;-61
2023/05/09 06:02:37;;;;;;;23.93;21.60;;;15.70;99.90;;;;;;5075940;28;20461;-61
2023/05/09 06:05:07;;;;;;;26.30;22.27;;;15.80;99.90;;;;;;5075756;28;20464;-61
2023/05/09 06:07:34;;;;;;;25.47;22.73;;;15.80;93.00;;;;;;5075252;28;20436;-61
2023/05/09 06:10:01;;;;;;;27.77;21.60;;;15.80;25.30;;;;;;5076620;28;20436;-61
2023/05/09 06:12:29;;;;;;;25.37;22.47;;;15.80;94.30;;;;;;5076329;28;20845;-61
2023/05/09 06:14:56;;;;;;;25.93;22.67;;;15.90;1.00;;;;;;5075075;28;20556;-60
2023/05/09 06:17:23;;;;;;;33.93;22.73;;;15.90;1.00;;;;;;5073511;28;20439;-61
2023/05/09 06:19:51;;;;;;;22.83;20.47;;;15.90;1.00;;;;;;5074163;28;20469;-60
2023/05/09 06:22:19;;;;;;;25.10;21.60;;;15.90;99.90;;;;;;5074543;28;20921;-60
2023/05/09 06:24:46;;;;;;;23.13;20.87;;;16.00;14.00;;;;;;5073474;28;20440;-60
2023/05/09 06:27:14;;;;;;;24.73;22.20;;;16.00;1.00;;;;;;5074186;28;20932;-60
2023/05/09 06:29:41;;;;;;;25.33;22.87;;;16.10;1.00;;;;;;5075001;28;20886;-61
2023/05/09 06:32:08;;;;;;;22.23;20.03;;;16.20;1.00;;;;;;5094295;28;20812;-61
2023/05/09 06:34:35;;;;;;;24.27;21.40;;;16.20;1.00;;;;;;5095917;28;20534;-61
2023/05/09 06:37:03;;;;;;;23.43;20.83;;;16.40;1.00;;;;;;5094957;28;20546;-61
2023/05/09 06:39:31;;;;;;;21.80;19.53;;;16.40;99.90;;;;;;5095384;28;20452;-61
2023/05/09 06:41:58;;;;;;;23.77;21.37;;;16.40;99.90;;;;;;5095349;28;20495;-61
2023/05/09 06:44:26;;;;;;;21.77;19.63;;;16.50;99.90;;;;;;5094676;28;20551;-61
2023/05/09 06:46:53;;;;;;;23.30;20.90;;;16.70;99.90;;;;;;5098254;28;20559;-61
2023/05/09 06:49:20;;;;;;;22.57;20.30;;;16.80;99.90;;;;;;5099671;28;20496;-61
2023/05/09 06:51:47;;;;;;;22.33;19.90;;;16.90;99.90;;;;;;5100709;28;20582;-61
2023/05/09 06:54:15;;;;;;;22.30;19.97;;;16.80;99.90;;;;;;5100084;28;20555;-61
2023/05/09 06:56:44;;;;;;;22.30;19.97;;;16.80;99.90;;;;;;5100159;28;20439;-61
2023/05/09 06:59:12;;;;;;;22.60;20.30;;;17.00;99.90;;;;;;5100494;28;20547;-61
2023/05/09 07:01:40;;;;;;;21.67;19.37;;;17.10;91.30;;;;;;5100316;28;20460;-60
2023/05/09 07:04:07;;;;;;;22.13;18.90;;;17.10;99.90;;;;;;5099798;28;20461;-61
2023/05/09 07:06:34;;;;;;;20.53;18.60;;;17.40;93.80;;;;;;5098833;28;20464;-62
2023/05/09 07:09:03;;;;;;;21.10;19.00;;;17.40;21.20;;;;;;5099241;28;20466;-60
2023/05/09 07:11:35;;;;;;;19.13;17.23;;;17.40;1.00;;;;;;5099431;28;20460;-61
2023/05/09 07:14:04;;;;;;;21.40;19.40;;;17.40;1.40;;;;;;5100397;28;20457;-60
2023/05/09 07:16:31;;;;;;;19.73;17.83;;;17.50;1.00;;;;;;5099880;28;20434;-60
2023/05/09 07:18:58;;;;;;;20.90;18.90;;;17.60;1.00;;;;;;5099973;28;20435;-61
2023/05/09 07:21:25;;;;;;;20.33;18.23;;;17.70;1.00;;;;;;5100127;28;20496;-62
2023/05/09 07:23:52;;;;;;;20.77;18.67;;;17.90;1.00;;;;;;5099150;28;20457;-60
2023/05/09 07:26:20;;;;;;;19.70;17.67;;;17.90;1.00;;;;;;5099872;28;20559;-61
2023/05/09 07:28:47;;;;;;;19.20;17.20;;;18.10;1.00;;;;;;5099927;28;20456;-61
2023/05/09 07:31:15;;;;;;;18.63;16.83;;;18.40;1.00;;;;;;5096764;28;20516;-61
2023/05/09 07:33:43;;;;;;;16.97;15.37;;;18.80;1.00;;;;;;5100061;28;20508;-61
2023/05/09 07:36:12;;;;;;;17.07;15.40;;;19.20;1.00;;;;;;5084760;28;20515;-62
2023/05/09 07:38:39;;;;;;;16.90;15.30;;;19.20;1.00;;;;;;5078573;28;20834;-61
2023/05/09 07:41:07;;;;;;;18.53;16.77;;;19.30;1.00;;;;;;5079541;28;20461;-61
2023/05/09 07:43:34;;;;;;;19.47;17.57;;;19.20;1.00;;;;;;5079524;28;20461;-61
2023/05/09 07:46:01;;;;;;;18.40;16.60;;;19.10;1.00;;;;;;5079480;28;20806;-61
2023/05/09 07:48:30;;;;;;;17.83;16.00;;;18.80;1.00;;;;;;5079006;28;20504;-61
2023/05/09 07:50:57;;;;;;;16.43;14.83;;;18.70;1.00;;;;;;5078567;28;20548;-60
2023/05/09 07:53:25;;;;;;;16.40;14.80;;;18.90;1.00;;;;;;5078841;28;20600;-61
2023/05/09 07:55:52;;;;;;;15.90;14.40;;;18.90;1.00;;;;;;5079392;28;20461;-61
2023/05/09 07:58:20;;;;;;;14.40;13.00;;;18.90;1.00;;;;;;5077757;28;20748;-61
2023/05/09 08:00:47;;;;;;;12.67;11.30;;;19.10;1.00;;;;;;5078915;28;20462;-60
2023/05/09 08:03:14;;;;;;;13.97;12.67;;;18.90;1.00;;;;;;5079297;28;20457;-62
2023/05/09 08:05:43;;;;;;;13.83;12.30;;;18.70;1.00;;;;;;5078296;28;20730;-61
2023/05/09 08:08:10;;;;;;;13.07;11.77;;;18.30;1.00;;;;;;5078071;28;20528;-61
2023/05/09 08:10:37;;;;;;;12.67;11.47;;;18.10;1.00;;;;;;5078362;28;20468;-60
2023/05/09 08:13:04;;;;;;;12.10;10.90;;;18.10;1.00;;;;;;5078515;28;20812;-62
2023/05/09 08:15:32;;;;;;;14.93;11.60;;;18.20;1.00;;;;;;5078558;28;20471;-60
2023/05/09 08:17:59;;;;;;;11.27;10.27;;;18.30;1.00;;;;;;5079055;28;20472;-61
2023/05/09 08:20:26;;;;;;;11.27;10.17;;;18.50;1.00;;;;;;5078292;28;20535;-60
2023/05/09 08:22:55;;;;;;;12.20;11.00;;;18.90;1.00;;;;;;5078695;28;20464;-61
2023/05/09 08:25:22;;;;;;;13.60;12.30;;;19.10;1.00;;;;;;5076908;28;20473;-60
2023/05/09 08:27:49;;;;;;;13.67;12.27;;;19.40;1.00;;;;;;5078290;28;20548;-61
2023/05/09 08:30:16;;;;;;;11.10;10.10;;;19.40;1.00;;;;;;5066367;28;20710;-60
2023/05/09 08:32:43;;;;;;;12.50;11.30;;;19.50;1.00;;;;;;5078540;28;20918;-61
2023/05/09 08:35:11;;;;;;;11.77;10.20;;;19.40;99.90;;;;;;5078108;28;20556;-61
2023/05/09 08:37:39;;;;;;;11.60;10.50;;;19.40;99.90;;;;;;5077951;28;20493;-60
2023/05/09 08:40:09;;;;;;;9.67;8.87;;;19.40;99.90;;;;;;5094905;28;20991;-61
2023/05/09 08:42:38;;;;;;;9.60;8.70;;;19.20;99.90;;;;;;5098096;28;20530;-62
2023/05/09 08:45:09;;;;;;;10.73;9.73;;;18.90;99.90;;;;;;5098096;28;20555;-60
2023/05/09 08:47:38;;;;;;;9.10;8.33;;;18.90;99.90;;;;;;5095313;28;20446;-61
2023/05/09 08:50:06;;;;;;;8.93;8.23;;;19.20;99.90;;;;;;5097300;28;20487;-61
2023/05/09 08:52:34;;;;;;;8.70;7.90;;;19.60;99.90;;;;;;5091424;28;20492;-62
2023/05/09 08:55:02;;;;;;;10.20;8.87;;;20.10;99.90;;;;;;5097824;28;20460;-61
2023/05/09 08:57:33;;;;;;;9.83;8.93;;;20.00;99.90;;;;;;5096471;28;20774;-61
2023/05/09 09:00:01;;;;;;;8.33;7.53;;;20.40;99.90;;;;;;5096871;28;20460;-59
2023/05/09 09:02:30;;;;;;;8.53;7.60;;;20.70;99.90;;;;;;5096129;28;20517;-61
2023/05/09 09:04:57;;;;;;;8.63;7.93;;;20.70;99.90;;;;;;5096750;28;20582;-61
2023/05/09 09:07:27;;;;;;;9.57;8.77;;;20.90;99.90;;;;;;5096400;28;20896;-61
2023/05/09 09:09:55;;;;;;;8.87;7.97;;;21.40;99.90;;;;;;5096028;28;20869;-61
2023/05/09 09:12:24;;;;;;;8.37;7.67;;;21.50;99.90;;;;;;5093743;28;20591;-60
2023/05/09 09:14:54;;;;;;;8.70;7.80;;;21.80;99.90;;;;;;5096277;28;20492;-61
2023/05/09 09:17:26;;;;;;;8.23;7.43;;;22.10;99.90;;;;;;5095656;28;20457;-61
2023/05/09 09:19:58;;;;;;;8.60;7.80;;;22.20;99.90;;;;;;5095517;28;20825;-58
2023/05/09 09:22:31;;;;;;;8.50;7.70;;;22.40;99.90;;;;;;5095086;28;20460;-61
2023/05/09 09:24:59;;;;;;;7.60;6.93;;;22.00;99.90;;;;;;5096740;28;20464;-61
2023/05/09 09:27:26;;;;;;;7.30;6.70;;;21.70;99.90;;;;;;5096401;28;20466;-61
2023/05/09 09:29:55;;;;;;;7.00;6.17;;;21.60;99.90;;;;;;5097280;28;20471;-60
2023/05/09 09:32:33;;;;;;;6.10;5.60;;;21.20;99.90;;;;;;5086255;28;20520;-61
2023/05/09 09:35:05;;;;;;;6.80;6.23;;;21.80;99.90;;;;;;5094122;28;20459;-59
2023/05/09 09:37:34;;;;;;;5.63;5.03;;;22.10;99.90;;;;;;5097620;28;20770;-59
2023/05/09 09:40:01;;;;;;;7.00;4.63;;;22.30;99.90;;;;;;5097730;28;20460;-60
2023/05/09 09:42:41;;;;;;;7.40;6.70;;;22.40;99.90;;;;;;5096896;28;20507;-61
2023/05/09 09:45:12;;;;;;;5.90;5.40;;;22.50;99.90;;;;;;5097135;28;20460;-60
2023/05/09 09:47:40;;;;;;;5.90;5.03;;;22.60;99.90;;;;;;5096097;28;20567;-60
2023/05/09 09:50:12;;;;;;;5.67;5.27;;;22.60;99.90;;;;;;5097113;28;20696;-58
2023/05/09 09:52:44;;;;;;;6.30;5.80;;;22.60;99.90;;;;;;5097163;28;20489;-59
2023/05/09 09:55:12;;;;;;;5.20;4.80;;;22.90;99.90;;;;;;5097365;28;20831;-61
2023/05/09 09:57:42;;;;;;;10.40;4.60;;;22.90;99.90;;;;;;5097743;28;20732;-60
2023/05/09 10:00:13;;;;;;;5.93;5.27;;;23.10;99.90;;;;;;5097573;28;20534;-59
2023/05/09 10:02:54;;;;;;;5.13;4.73;;;23.30;99.90;;;;;;5096907;28;20555;-60
2023/05/09 10:05:22;;;;;;;5.50;5.00;;;23.30;99.90;;;;;;5097416;28;20559;-60
2023/05/09 10:07:55;;;;;;;4.90;4.50;;;23.10;99.90;;;;;;5096857;28;20908;-59
2023/05/09 10:10:23;;;;;;;5.17;4.77;;;23.00;99.90;;;;;;5097162;28;20494;-60
2023/05/09 10:12:54;;;;;;;5.83;5.30;;;23.40;99.90;;;;;;5097058;28;20621;-60
2023/05/09 10:15:23;;;;;;;5.87;5.03;;;23.50;99.90;;;;;;5096923;28;20885;-60
2023/05/09 10:17:55;;;;;;;5.40;5.00;;;23.70;99.90;;;;;;5097138;28;20886;-60
2023/05/09 10:20:23;;;;;;;5.57;5.07;;;23.60;99.90;;;;;;5097787;28;20460;-61
2023/05/09 10:22:53;;;;;;;5.40;4.90;;;23.20;99.90;;;;;;5100564;28;20550;-60
2023/05/09 10:25:22;;;;;;;5.50;5.00;;;23.10;99.90;;;;;;5100967;28;20562;-59
2023/05/09 10:27:52;;;;;;;7.03;5.90;;;23.10;99.90;;;;;;5101331;28;20459;-60
2023/05/09 10:30:23;;;;;;;5.60;4.80;;;23.30;99.90;;;;;;5083877;28;20496;-58
2023/05/09 10:32:56;;;;;;;6.30;5.80;;;23.00;99.90;;;;;;5080570;28;20595;-59
2023/05/09 10:35:29;;;;;;;6.30;5.73;;;22.80;99.90;;;;;;5080617;28;20508;-58
2023/05/09 10:37:57;;;;;;;5.90;5.40;;;22.50;99.90;;;;;;5080707;28;20732;-62
2023/05/09 10:40:25;;;;;;;5.47;4.97;;;22.00;99.90;;;;;;5080593;28;20830;-58
2023/05/09 10:42:52;;;;;;;5.93;5.43;;;21.80;99.90;;;;;;5080452;28;20457;-61
2023/05/09 10:45:21;;;;;;;6.30;4.80;;;21.60;99.90;;;;;;5080835;28;20515;-60
2023/05/09 10:47:50;;;;;;;5.60;5.10;;;21.60;99.90;;;;;;5080406;28;20442;-59
2023/05/09 10:50:20;;;;;;;4.90;4.50;;;21.50;99.90;;;;;;5080576;28;20465;-60
2023/05/09 10:53:07;;;;;;;5.90;5.33;;;21.90;99.90;;;;;;5079743;28;20523;-59
2023/05/09 10:55:39;;;;;;;5.37;4.87;;;22.30;99.90;;;;;;5098304;28;20430;-61
2023/05/09 10:58:25;;;;;;;5.20;4.80;;;22.20;99.90;;;;;;5099405;28;20869;-61
2023/05/09 11:00:53;;;;;;;6.67;4.67;;;22.10;99.90;;;;;;5098408;28;20467;-62
2023/05/09 11:03:21;;;;;;;5.60;5.10;;;22.10;99.90;;;;;;5099599;28;20770;-60
2023/05/09 11:05:52;;;;;;;8.07;7.37;;;22.00;99.90;;;;;;5099298;28;20559;-58
2023/05/09 11:08:25;;;;;;;6.43;5.80;;;21.90;99.90;;;;;;5100235;28;20456;-55
2023/05/09 11:10:53;;;;;;;6.37;5.10;;;21.80;99.90;;;;;;5098949;28;20468;-59
2023/05/09 11:13:23;;;;;;;6.03;5.53;;;21.70;99.90;;;;;;5100011;28;20510;-59
2023/05/09 11:16:06;;;;;;;4.57;4.27;;;21.80;99.90;;;;;;5100226;28;20746;-55
2023/05/09 11:18:34;;;;;;;5.10;4.70;;;21.70;99.90;;;;;;5096005;28;20917;-58
2023/05/09 11:21:09;;;;;;;5.80;5.30;;;22.00;99.90;;;;;;5097780;28;20480;-58
2023/05/09 11:23:38;;;;;;;6.30;5.80;;;22.40;99.90;;;;;;5099842;28;20509;-59
2023/05/09 11:26:07;;;;;;;5.20;4.80;;;22.80;99.90;;;;;;5099837;28;20537;-56
2023/05/09 11:28:36;;;;;;;7.10;5.63;;;23.20;99.90;;;;;;5099321;28;20551;-57
2023/05/09 11:31:10;;;;;;;8.77;5.37;;;22.90;99.90;;;;;;5099052;28;20793;-58
2023/05/09 11:33:38;;;;;;;6.10;5.10;;;22.80;99.90;;;;;;5099841;28;20963;-55
2023/05/09 11:36:24;;;;;;;5.17;4.60;;;23.10;99.90;;;;;;5099214;28;20475;-58
2023/05/09 11:39:05;;;;;;;4.77;4.37;;;23.10;99.90;;;;;;5078963;28;20777;-59
2023/05/09 11:41:39;;;;;;;5.13;4.63;;;22.90;99.90;;;;;;5082359;28;20509;-58
2023/05/09 11:44:17;;;;;;;4.97;4.57;;;22.60;99.90;;;;;;5077319;28;20531;-59
2023/05/09 11:46:44;;;;;;;4.60;4.20;;;22.10;99.90;;;;;;5075595;28;20457;-54
2023/05/09 11:49:11;;;;;;;4.80;4.30;;;21.80;99.90;;;;;;5075955;28;20436;-57
2023/05/09 11:51:40;;;;;;;6.83;5.13;;;21.70;99.90;;;;;;5074820;28;20905;-58
2023/05/09 11:54:10;;;;;;;5.60;4.20;;;21.30;99.90;;;;;;5075869;28;20493;-57
2023/05/09 11:56:40;;;;;;;5.77;5.20;;;21.10;99.90;;;;;;5075663;28;20432;-59
2023/05/09 11:59:09;;;;;;;4.80;4.30;;;21.20;99.90;;;;;;5080072;28;20439;-59
2023/05/09 12:01:36;;;;;;;5.37;4.97;;;21.40;99.90;;;;;;5096420;28;20460;-60
2023/05/09 12:04:06;;;;;;;4.90;4.50;;;21.50;99.90;;;;;;5096747;28;20463;-55
2023/05/09 12:06:33;;;;;;;4.70;4.33;;;21.70;99.90;;;;;;5097300;28;20738;-59
2023/05/09 12:09:02;;;;;;;5.20;4.50;;;22.10;99.90;;;;;;5095710;28;20852;-57
2023/05/09 12:11:31;;;;;;;4.93;4.53;;;22.40;99.90;;;;;;5095590;28;20461;-56
2023/05/09 12:13:59;;;;;;;5.80;5.30;;;22.30;99.90;;;;;;5097501;28;20520;-56
2023/05/09 12:16:26;;;;;;;6.53;5.17;;;21.80;99.90;;;;;;5095566;28;20488;-58
2023/05/09 12:18:53;;;;;;;5.00;4.60;;;21.80;99.90;;;;;;5097452;28;20929;-56
2023/05/09 12:21:21;;;;;;;6.33;5.83;;;21.70;99.90;;;;;;5097177;28;20555;-57
2023/05/09 12:23:48;;;;;;;6.00;5.47;;;21.90;99.90;;;;;;5099092;28;20488;-60
2023/05/09 12:26:17;;;;;;;5.50;5.07;;;21.80;99.90;;;;;;5095495;28;20798;-60
2023/05/09 12:28:45;;;;;;;5.33;4.83;;;21.90;99.90;;;;;;5095184;28;20439;-61
2023/05/09 12:31:12;;;;;;;5.77;5.20;;;22.00;99.90;;;;;;5086699;28;20484;-61
2023/05/09 12:33:40;;;;;;;5.37;4.87;;;22.20;99.90;;;;;;5095885;28;20488;-61
2023/05/09 12:36:09;;;;;;;5.47;5.00;;;22.50;99.90;;;;;;5096689;28;20460;-61
2023/05/09 12:38:37;;;;;;;6.10;4.90;;;22.70;99.90;;;;;;5096495;28;20467;-61
2023/05/09 12:41:06;;;;;;;5.17;4.67;;;22.80;99.90;;;;;;5096705;28;20464;-60
2023/05/09 12:43:36;;;;;;;5.73;5.23;;;22.80;99.90;;;;;;5097351;28;20461;-61